Ibadan, Nigeria
Current Conditions -  °F | °C
As of 9:00 AM on Tuesday 27 Jan 2015 (Local Time) from DNMM Reporting Station
Few Clouds Few Clouds  
Wind Chill: 82°   Ceiling: Unl
Heat Index: 92°   Visibility: 4mi
Dew Point: 79°   Wind: 2mph
Humidity: 89%   Direction: NA
Pressure: 29.91"   Gusts: NA
Location:  7.38°N, 3.93°E
Report Text: DNMM 270800Z VRB02KT 7000 FEW011 28/26 Q1013 NOSIG
Loading
Personal Weather Stations






























Interactive Weather Map New forecast layout! Learn more

10-Day Weather Forecast

Advertisements
Track Severe Weather on mobile